createdAt,value
2022-12-18T00:00:33.482Z,-4.35
2022-12-18T00:03:03.160Z,-4.38
2022-12-18T00:05:34.161Z,-4.42
2022-12-18T00:08:09.328Z,-4.44
2022-12-18T00:10:39.219Z,-4.51
2022-12-18T00:13:10.233Z,-4.52
2022-12-18T00:15:40.569Z,-4.53
2022-12-18T00:18:10.444Z,-4.56
2022-12-18T00:20:40.597Z,-4.59
2022-12-18T00:23:12.877Z,-4.61
2022-12-18T00:25:42.443Z,-4.62
2022-12-18T00:28:12.043Z,-4.62
2022-12-18T00:30:41.709Z,-4.62
2022-12-18T00:33:11.316Z,-4.60
2022-12-18T00:35:40.884Z,-4.63
2022-12-18T00:38:13.050Z,-4.65
2022-12-18T00:40:42.650Z,-4.66
2022-12-18T00:43:09.698Z,-4.66
2022-12-18T00:45:39.426Z,-4.69
2022-12-18T00:48:09.207Z,-4.68
2022-12-18T00:50:39.221Z,-4.70
2022-12-18T00:53:08.925Z,-4.70
2022-12-18T00:55:41.492Z,-4.73
2022-12-18T00:58:11.166Z,-4.74
2022-12-18T01:00:41.842Z,-4.76
2022-12-18T01:03:16.878Z,-4.74
2022-12-18T01:05:47.319Z,-4.74
2022-12-18T01:08:16.924Z,-4.75
2022-12-18T01:10:49.525Z,-4.74
2022-12-18T01:13:19.209Z,-4.74
2022-12-18T01:15:52.482Z,-4.73
2022-12-18T01:18:22.150Z,-4.76
2022-12-18T01:20:51.910Z,-4.77
2022-12-18T01:23:21.494Z,-4.81
2022-12-18T01:25:53.700Z,-4.80
2022-12-18T01:28:23.294Z,-4.81
2022-12-18T01:30:52.867Z,-4.80
2022-12-18T01:33:23.032Z,-4.78
2022-12-18T01:35:52.643Z,-4.78
2022-12-18T01:38:24.212Z,-4.80
2022-12-18T01:41:00.872Z,-4.83
2022-12-18T01:43:45.657Z,-4.85
2022-12-18T01:46:15.472Z,-4.83
2022-12-18T01:48:46.651Z,-4.84
2022-12-18T01:51:16.563Z,-4.84
2022-12-18T01:53:47.914Z,-4.83
2022-12-18T01:56:24.585Z,-4.80
2022-12-18T01:58:58.953Z,-4.81
2022-12-18T02:01:29.339Z,-4.80
2022-12-18T02:03:59.525Z,-4.79
2022-12-18T02:06:33.654Z,-4.79
2022-12-18T02:09:12.727Z,-4.77
2022-12-18T02:11:52.709Z,-4.76
2022-12-18T02:14:26.867Z,-4.74
2022-12-18T02:17:03.154Z,-4.72
2022-12-18T02:23:17.644Z,-4.76
2022-12-18T02:26:05.336Z,-4.77
2022-12-18T02:28:37.840Z,-4.76
2022-12-18T02:31:12.595Z,-4.74
2022-12-18T02:33:44.032Z,-4.73
2022-12-18T02:36:15.796Z,-4.73
2022-12-18T02:38:46.583Z,-4.74
2022-12-18T02:41:21.967Z,-4.73
2022-12-18T02:43:53.236Z,-4.72
2022-12-18T02:46:32.897Z,-4.73
2022-12-18T02:49:12.262Z,-4.71
2022-12-18T02:51:49.955Z,-4.67
2022-12-18T02:54:26.758Z,-4.66
2022-12-18T02:57:02.599Z,-4.65
2022-12-18T02:59:35.851Z,-4.64
2022-12-18T03:02:09.040Z,-4.64
2022-12-18T03:04:43.952Z,-4.62
2022-12-18T03:07:20.539Z,-4.64
2022-12-18T03:09:54.172Z,-4.65
2022-12-18T03:12:30.607Z,-4.65
2022-12-18T03:15:04.769Z,-4.67
2022-12-18T03:17:36.659Z,-4.65
2022-12-18T03:20:10.050Z,-4.63
2022-12-18T03:22:41.687Z,-4.60
2022-12-18T03:25:13.750Z,-4.56
2022-12-18T03:27:51.278Z,-4.54
2022-12-18T03:30:23.103Z,-4.54
2022-12-18T03:33:00.122Z,-4.52
2022-12-18T03:35:32.629Z,-4.49
2022-12-18T03:38:02.257Z,-4.49
2022-12-18T03:40:39.932Z,-4.48
2022-12-18T03:43:15.585Z,-4.48
2022-12-18T03:45:47.422Z,-4.50
2022-12-18T03:48:21.383Z,-4.52
2022-12-18T03:50:56.594Z,-4.50
2022-12-18T03:53:28.595Z,-4.51
2022-12-18T03:55:59.089Z,-4.55
2022-12-18T03:58:37.184Z,-4.55
2022-12-18T04:01:19.628Z,-4.50
2022-12-18T04:03:50.651Z,-4.41
2022-12-18T04:06:22.364Z,-4.33
2022-12-18T04:08:52.322Z,-4.31
2022-12-18T04:11:24.991Z,-4.32
2022-12-18T04:13:59.186Z,-4.32
2022-12-18T04:16:28.633Z,-4.32
2022-12-18T04:19:02.138Z,-4.34
2022-12-18T04:21:36.723Z,-4.33
2022-12-18T04:24:06.959Z,-4.34
2022-12-18T04:26:39.378Z,-4.34
2022-12-18T04:29:19.845Z,-4.34
2022-12-18T04:31:50.510Z,-4.34
2022-12-18T04:34:20.437Z,-4.32
2022-12-18T04:36:55.959Z,-4.31
2022-12-18T04:39:26.351Z,-4.31
2022-12-18T04:41:59.392Z,-4.31
2022-12-18T04:44:31.587Z,-4.30
2022-12-18T04:47:01.144Z,-4.28
2022-12-18T04:49:30.725Z,-4.27
2022-12-18T04:52:00.255Z,-4.27
2022-12-18T04:54:29.800Z,-4.29
2022-12-18T04:56:59.316Z,-4.28
2022-12-18T04:59:32.726Z,-4.27
2022-12-18T05:02:02.373Z,-4.27
2022-12-18T05:04:32.043Z,-4.27
2022-12-18T05:07:01.629Z,-4.29
2022-12-18T05:09:31.213Z,-4.25
2022-12-18T05:12:00.771Z,-4.22
2022-12-18T05:14:32.899Z,-4.18
2022-12-18T05:17:02.483Z,-4.12
2022-12-18T05:19:32.088Z,-4.10
2022-12-18T05:22:02.461Z,-4.09
2022-12-18T05:24:32.045Z,-4.08
2022-12-18T05:27:01.601Z,-4.02
2022-12-18T05:29:33.777Z,-3.97
2022-12-18T05:32:03.333Z,-3.94
2022-12-18T05:34:34.479Z,-3.90
2022-12-18T05:37:04.038Z,-3.85
2022-12-18T05:39:33.594Z,-3.79
2022-12-18T05:42:03.253Z,-3.75
2022-12-18T05:44:35.388Z,-3.70
2022-12-18T05:47:05.250Z,-3.68
2022-12-18T05:49:35.136Z,-3.67
2022-12-18T05:52:04.746Z,-3.66
2022-12-18T05:54:34.722Z,-3.66
2022-12-18T05:57:04.328Z,-3.65
2022-12-18T05:59:36.558Z,-3.64
2022-12-18T06:02:06.340Z,-3.66
2022-12-18T06:04:35.981Z,-3.64
2022-12-18T06:07:05.579Z,-3.63
2022-12-18T06:09:35.674Z,-3.63
2022-12-18T06:12:05.243Z,-3.62
2022-12-18T06:14:37.407Z,-3.63
2022-12-18T06:17:06.995Z,-3.65
2022-12-18T06:19:36.544Z,-3.63
2022-12-18T06:22:06.134Z,-3.63
2022-12-18T06:24:35.718Z,-3.63
2022-12-18T06:27:05.297Z,-3.64
2022-12-18T06:29:37.455Z,-3.64
2022-12-18T06:32:07.570Z,-3.62
2022-12-18T06:34:37.466Z,-3.58
2022-12-18T06:37:07.155Z,-3.54
2022-12-18T06:39:36.699Z,-3.52
2022-12-18T06:42:07.260Z,-3.49
2022-12-18T06:44:39.440Z,-3.49
2022-12-18T06:47:09.101Z,-3.46
2022-12-18T06:49:38.637Z,-3.46
2022-12-18T06:52:08.252Z,-3.44
2022-12-18T06:54:37.874Z,-3.43
2022-12-18T06:57:07.481Z,-3.44
2022-12-18T06:59:39.663Z,-3.44
2022-12-18T07:02:09.645Z,-3.43
2022-12-18T07:04:39.951Z,-3.42
2022-12-18T07:07:09.550Z,-3.45
2022-12-18T07:09:39.159Z,-3.47
2022-12-18T07:12:09.103Z,-3.48
2022-12-18T07:14:41.274Z,-3.51
2022-12-18T07:17:11.077Z,-3.53
2022-12-18T07:19:40.688Z,-3.51
2022-12-18T07:22:10.290Z,-3.52
2022-12-18T07:24:39.904Z,-3.54
2022-12-18T07:27:09.907Z,-3.54
2022-12-18T07:29:42.632Z,-3.55
2022-12-18T07:32:12.224Z,-3.55
2022-12-18T07:34:42.211Z,-3.55
2022-12-18T07:37:11.928Z,-3.55
2022-12-18T07:39:41.506Z,-3.55
2022-12-18T07:42:23.695Z,-3.54
2022-12-18T07:44:57.121Z,-3.50
2022-12-18T07:47:26.985Z,-3.46
2022-12-18T07:49:56.866Z,-3.43
2022-12-18T07:52:26.986Z,-3.39
2022-12-18T07:54:56.724Z,-3.36
2022-12-18T07:57:50.193Z,-3.32
2022-12-18T08:00:19.752Z,-3.25
2022-12-18T08:02:51.132Z,-3.21
2022-12-18T08:05:21.676Z,-3.21
2022-12-18T08:07:51.240Z,-3.19
2022-12-18T08:10:21.042Z,-3.15
2022-12-18T08:12:53.200Z,-3.12
2022-12-18T08:15:25.375Z,-3.09
2022-12-18T08:17:54.969Z,-3.06
2022-12-18T08:20:24.727Z,-3.02
2022-12-18T08:22:55.200Z,-2.99
2022-12-18T08:25:25.182Z,-2.96
2022-12-18T08:27:54.857Z,-2.92
2022-12-18T08:30:27.094Z,-2.87
2022-12-18T08:32:57.249Z,-2.81
2022-12-18T08:35:29.529Z,-2.72
2022-12-18T08:38:01.184Z,-2.62
2022-12-18T08:40:30.722Z,-2.52
2022-12-18T08:43:13.003Z,-2.40
2022-12-18T08:45:45.289Z,-2.26
2022-12-18T08:48:20.618Z,-2.13
2022-12-18T08:50:57.902Z,-2.05
2022-12-18T08:53:36.637Z,-1.95
2022-12-18T08:56:06.608Z,-1.84
2022-12-18T08:58:36.218Z,-1.74
2022-12-18T09:01:10.521Z,-1.63
2022-12-18T09:03:41.089Z,-1.45
2022-12-18T09:06:11.288Z,-1.28
2022-12-18T09:08:41.348Z,-1.15
2022-12-18T09:11:16.996Z,-0.98
2022-12-18T09:13:46.631Z,-0.79
2022-12-18T09:16:19.323Z,-0.63
2022-12-18T09:18:49.010Z,-0.47
2022-12-18T09:21:20.244Z,-0.33
2022-12-18T09:23:53.587Z,-0.15
2022-12-18T09:26:23.354Z,0.00
2022-12-18T09:28:53.270Z,0.15
2022-12-18T09:31:26.650Z,0.36
2022-12-18T09:33:56.253Z,0.75
2022-12-18T09:36:25.798Z,0.99
2022-12-18T09:38:55.758Z,1.10
2022-12-18T09:41:43.474Z,1.17
2022-12-18T09:44:22.637Z,1.19
2022-12-18T09:47:00.996Z,1.17
2022-12-18T09:49:32.876Z,1.11
2022-12-18T09:52:06.577Z,1.12
2022-12-18T09:54:39.564Z,1.13
2022-12-18T09:57:16.431Z,1.12
2022-12-18T09:59:48.648Z,1.09
2022-12-18T10:02:23.360Z,1.00
2022-12-18T10:05:06.351Z,0.90
2022-12-18T10:07:42.328Z,0.78
2022-12-18T10:10:19.353Z,0.70
2022-12-18T10:12:59.533Z,0.60
2022-12-18T10:15:38.086Z,0.51
2022-12-18T10:18:22.836Z,0.45
2022-12-18T10:20:55.160Z,0.43
2022-12-18T10:23:29.062Z,0.42
2022-12-18T10:26:04.799Z,0.43
2022-12-18T10:28:35.462Z,0.46
2022-12-18T10:31:06.299Z,0.50
2022-12-18T10:33:38.681Z,0.54
2022-12-18T10:36:08.685Z,0.54
2022-12-18T10:38:42.713Z,0.57
2022-12-18T10:41:29.722Z,0.58
2022-12-18T10:44:15.675Z,0.62
2022-12-18T10:46:46.062Z,0.67
2022-12-18T10:49:32.783Z,0.72
2022-12-18T10:52:11.386Z,0.79
2022-12-18T10:54:41.932Z,0.81
2022-12-18T10:57:18.455Z,0.83
2022-12-18T10:59:55.876Z,0.87
2022-12-18T11:02:38.414Z,0.91
2022-12-18T11:05:27.684Z,0.96
2022-12-18T11:07:58.338Z,0.98
2022-12-18T11:10:32.204Z,1.02
2022-12-18T11:13:14.501Z,1.04
2022-12-18T11:15:44.634Z,1.07
2022-12-18T11:18:21.493Z,1.10
2022-12-18T11:20:59.054Z,1.14
2022-12-18T11:23:29.623Z,1.14
2022-12-18T11:26:01.517Z,1.13
2022-12-18T11:28:41.534Z,1.12
2022-12-18T11:31:21.271Z,1.12
2022-12-18T11:34:26.948Z,1.12
2022-12-18T11:36:49.594Z,1.11
2022-12-18T11:39:22.476Z,1.09
2022-12-18T11:42:09.212Z,1.07
2022-12-18T11:44:43.899Z,1.04
2022-12-18T11:47:17.629Z,1.07
2022-12-18T11:49:47.224Z,1.12
2022-12-18T11:52:22.890Z,1.15
2022-12-18T11:54:55.553Z,1.16
2022-12-18T11:57:36.897Z,1.18
2022-12-18T12:00:15.908Z,1.17
2022-12-18T12:02:59.309Z,1.17
2022-12-18T12:05:43.095Z,1.14
2022-12-18T12:08:19.492Z,1.11
2022-12-18T12:10:56.692Z,1.10
2022-12-18T12:13:44.239Z,1.08
2022-12-18T12:16:21.414Z,1.05
2022-12-18T12:19:00.823Z,1.06
2022-12-18T12:21:36.520Z,1.03
2022-12-18T12:24:18.392Z,1.02
2022-12-18T12:26:53.488Z,1.04
2022-12-18T12:29:33.606Z,1.04
2022-12-18T12:32:11.336Z,1.01
2022-12-18T12:34:45.600Z,0.96
2022-12-18T12:37:18.322Z,0.86
2022-12-18T12:39:51.161Z,0.79
2022-12-18T12:42:40.079Z,0.72
2022-12-18T12:45:11.190Z,0.66
2022-12-18T12:47:43.554Z,0.60
2022-12-18T12:50:17.871Z,0.56
2022-12-18T12:52:49.606Z,0.52
2022-12-18T12:55:24.267Z,0.50
2022-12-18T12:58:01.943Z,0.45
2022-12-18T13:00:34.719Z,0.43
2022-12-18T13:03:11.781Z,0.39
2022-12-18T13:05:46.185Z,0.35
2022-12-18T13:08:26.677Z,0.33
2022-12-18T13:11:20.474Z,0.31
2022-12-18T13:13:53.147Z,0.31
2022-12-18T13:16:24.040Z,0.35
2022-12-18T13:18:55.314Z,0.38
2022-12-18T13:21:28.192Z,0.40
2022-12-18T13:23:58.402Z,0.39
2022-12-18T13:26:39.438Z,0.38
2022-12-18T13:29:09.458Z,0.35
2022-12-18T13:32:02.215Z,0.31
2022-12-18T13:34:34.348Z,0.26
2022-12-18T13:37:45.551Z,0.24
2022-12-18T13:40:57.740Z,0.21
2022-12-18T13:43:32.744Z,0.17
2022-12-18T13:46:08.422Z,0.14
2022-12-18T13:48:41.975Z,0.10
2022-12-18T13:51:14.563Z,0.08
2022-12-18T13:53:48.012Z,0.05
2022-12-18T13:56:23.322Z,0.06
2022-12-18T13:59:13.813Z,0.01
2022-12-18T14:01:52.997Z,-0.05
2022-12-18T14:04:26.525Z,-0.10
2022-12-18T14:06:59.364Z,-0.14
2022-12-18T14:09:31.780Z,-0.17
2022-12-18T14:12:16.095Z,-0.21
2022-12-18T14:14:51.523Z,-0.21
2022-12-18T14:17:24.724Z,-0.20
2022-12-18T14:19:55.139Z,-0.23
2022-12-18T14:22:28.972Z,-0.25
2022-12-18T14:25:17.473Z,-0.27
2022-12-18T14:27:48.818Z,-0.28
2022-12-18T14:30:39.437Z,-0.29
2022-12-18T14:33:13.166Z,-0.30
2022-12-18T14:35:44.737Z,-0.29
2022-12-18T14:38:26.796Z,-0.26
2022-12-18T14:40:57.540Z,-0.27
2022-12-18T14:43:27.251Z,-0.28
2022-12-18T14:46:00.106Z,-0.29
2022-12-18T14:48:39.679Z,-0.30
2022-12-18T14:51:10.865Z,-0.32
2022-12-18T14:53:42.682Z,-0.35
2022-12-18T14:56:19.905Z,-0.37
2022-12-18T14:58:51.336Z,-0.38
2022-12-18T15:01:32.334Z,-0.38
2022-12-18T15:04:02.940Z,-0.39
2022-12-18T15:06:44.756Z,-0.40
2022-12-18T15:09:26.138Z,-0.41
2022-12-18T15:12:00.224Z,-0.45
2022-12-18T15:14:38.586Z,-0.50
2022-12-18T15:17:20.368Z,-0.54
2022-12-18T15:19:51.155Z,-0.57
2022-12-18T15:22:29.857Z,-0.59
2022-12-18T15:25:00.650Z,-0.61
2022-12-18T15:27:33.240Z,-0.64
2022-12-18T15:30:21.802Z,-0.68
2022-12-18T15:32:55.627Z,-0.71
2022-12-18T15:35:27.739Z,-0.72
2022-12-18T15:37:57.373Z,-0.74
2022-12-18T15:40:27.655Z,-0.75
2022-12-18T15:43:10.731Z,-0.74
2022-12-18T15:45:40.508Z,-0.75
2022-12-18T15:48:24.956Z,-0.74
2022-12-18T15:50:58.288Z,-0.74
2022-12-18T15:53:28.467Z,-0.77
2022-12-18T15:56:10.585Z,-0.79
2022-12-18T15:58:40.183Z,-0.81
2022-12-18T16:01:11.744Z,-0.84
2022-12-18T16:03:44.616Z,-0.87
2022-12-18T16:06:14.699Z,-0.87
2022-12-18T16:08:44.372Z,-0.89
2022-12-18T16:11:38.971Z,-0.89
2022-12-18T16:14:10.464Z,-0.92
2022-12-18T16:16:40.067Z,-0.92
2022-12-18T16:19:12.353Z,-0.94
2022-12-18T16:21:41.965Z,-0.95
2022-12-18T16:24:17.023Z,-0.98
2022-12-18T16:26:47.381Z,-0.99
2022-12-18T16:29:17.171Z,-1.03
2022-12-18T16:31:46.824Z,-1.03
2022-12-18T16:34:23.454Z,-1.03
2022-12-18T16:37:01.682Z,-1.03
2022-12-18T16:39:35.462Z,-1.02
2022-12-18T16:42:06.222Z,-1.03
2022-12-18T16:44:36.044Z,-1.04
2022-12-18T16:47:06.356Z,-1.06
2022-12-18T16:49:40.978Z,-1.10
2022-12-18T16:52:10.920Z,-1.11
2022-12-18T16:54:40.514Z,-1.10
2022-12-18T16:57:10.154Z,-1.09
2022-12-18T16:59:39.688Z,-1.10
2022-12-18T17:02:12.715Z,-1.09
2022-12-18T17:04:45.243Z,-1.09
2022-12-18T17:07:15.081Z,-1.10
2022-12-18T17:09:45.077Z,-1.11
2022-12-18T17:12:14.806Z,-1.12
2022-12-18T17:14:44.360Z,-1.12
2022-12-18T17:17:23.396Z,-1.11
2022-12-18T17:19:56.066Z,-1.11
2022-12-18T17:22:25.885Z,-1.14
2022-12-18T17:24:55.467Z,-1.16
2022-12-18T17:27:25.197Z,-1.16
2022-12-18T17:29:54.804Z,-1.20
2022-12-18T17:32:24.378Z,-1.25
2022-12-18T17:34:56.618Z,-1.26
2022-12-18T17:37:26.190Z,-1.28
2022-12-18T17:39:56.056Z,-1.32
2022-12-18T17:42:26.347Z,-1.32
2022-12-18T17:44:55.938Z,-1.38
2022-12-18T17:47:25.569Z,-1.42
2022-12-18T17:49:57.770Z,-1.45
2022-12-18T17:52:27.388Z,-1.47
2022-12-18T17:54:56.967Z,-1.48
2022-12-18T17:57:26.534Z,-1.50
2022-12-18T17:59:56.067Z,-1.50
2022-12-18T18:02:25.782Z,-1.48
2022-12-18T18:04:58.780Z,-1.49
2022-12-18T18:07:28.420Z,-1.51
2022-12-18T18:09:58.051Z,-1.50
2022-12-18T18:12:40.107Z,-1.49
2022-12-18T18:15:11.030Z,-1.48
2022-12-18T18:17:41.286Z,-1.53
2022-12-18T18:20:22.178Z,-1.54
2022-12-18T18:22:52.222Z,-1.54
2022-12-18T18:25:21.832Z,-1.53
2022-12-18T18:27:52.143Z,-1.52
2022-12-18T18:30:22.469Z,-1.51
2022-12-18T18:32:52.805Z,-1.50
2022-12-18T18:35:52.759Z,-1.50
2022-12-18T18:38:15.414Z,-1.49
2022-12-18T18:40:44.981Z,-1.48
2022-12-18T18:43:15.703Z,-1.48
2022-12-18T18:45:45.321Z,-1.47
2022-12-18T18:48:16.872Z,-1.47
2022-12-18T18:50:58.768Z,-1.52
2022-12-18T18:53:28.464Z,-1.52
2022-12-18T18:56:37.446Z,-1.52
2022-12-18T18:58:51.855Z,-1.52
2022-12-18T19:01:23.134Z,-1.53
2022-12-18T19:03:53.419Z,-1.52
2022-12-18T19:06:28.033Z,-1.52
2022-12-18T19:08:58.623Z,-1.52
2022-12-18T19:11:41.360Z,-1.51
2022-12-18T19:14:13.266Z,-1.52
2022-12-18T19:16:43.483Z,-1.54
2022-12-18T19:19:14.064Z,-1.52
2022-12-18T19:21:46.282Z,-1.54
2022-12-18T19:24:15.813Z,-1.54
2022-12-18T19:26:45.486Z,-1.52
2022-12-18T19:29:15.994Z,-1.51
2022-12-18T19:31:45.637Z,-1.51
2022-12-18T19:34:16.372Z,-1.48
2022-12-18T19:36:48.738Z,-1.47
2022-12-18T19:39:20.671Z,-1.49
2022-12-18T19:41:51.834Z,-1.48
2022-12-18T19:44:21.735Z,-1.48
2022-12-18T19:46:53.154Z,-1.46
2022-12-18T19:49:22.700Z,-1.45
2022-12-18T19:51:55.223Z,-1.44
2022-12-18T19:54:24.801Z,-1.43
2022-12-18T19:56:55.876Z,-1.42
2022-12-18T19:59:25.665Z,-1.39
2022-12-18T20:01:56.157Z,-1.34
2022-12-18T20:04:25.925Z,-1.31
2022-12-18T20:06:59.745Z,-1.27
2022-12-18T20:09:29.359Z,-1.24
2022-12-18T20:11:59.407Z,-1.22
2022-12-18T20:14:29.186Z,-1.16
2022-12-18T20:16:58.841Z,-1.12
2022-12-18T20:19:30.227Z,-1.11
2022-12-18T20:22:02.338Z,-1.12
2022-12-18T20:24:32.112Z,-1.15
2022-12-18T20:27:01.826Z,-1.15
2022-12-18T20:29:31.482Z,-1.17
2022-12-18T20:32:01.068Z,-1.20
2022-12-18T20:34:30.617Z,-1.25
2022-12-18T20:37:02.956Z,-1.30
2022-12-18T20:39:33.526Z,-1.36
2022-12-18T20:42:03.280Z,-1.39
2022-12-18T20:44:35.928Z,-1.38
2022-12-18T20:47:08.578Z,-1.36
2022-12-18T20:49:39.564Z,-1.32
2022-12-18T20:52:16.395Z,-1.29
2022-12-18T20:54:47.770Z,-1.22
2022-12-18T20:57:17.404Z,-1.19
2022-12-18T20:59:48.516Z,-1.14
2022-12-18T21:02:18.674Z,-1.11
2022-12-18T21:04:48.650Z,-1.04
2022-12-18T21:07:20.814Z,-1.00
2022-12-18T21:09:50.386Z,-0.98
2022-12-18T21:12:45.232Z,-0.95
2022-12-18T21:15:18.091Z,-0.95
2022-12-18T21:17:47.765Z,-0.93
2022-12-18T21:20:18.877Z,-0.92
2022-12-18T21:22:51.548Z,-0.88
2022-12-18T21:25:23.542Z,-0.87
2022-12-18T21:27:53.081Z,-0.84
2022-12-18T21:30:22.934Z,-0.84
2022-12-18T21:32:52.473Z,-0.85
2022-12-18T21:35:22.369Z,-0.88
2022-12-18T21:37:56.642Z,-0.93
2022-12-18T21:40:26.932Z,-0.97
2022-12-18T21:43:09.076Z,-1.02
2022-12-18T21:45:39.026Z,-1.07
2022-12-18T21:48:08.923Z,-1.14
2022-12-18T21:50:38.478Z,-1.22
2022-12-18T21:53:10.610Z,-1.24
2022-12-18T21:55:40.148Z,-1.25
2022-12-18T21:58:09.699Z,-1.23
2022-12-18T22:00:39.214Z,-1.23
2022-12-18T22:03:08.779Z,-1.21
2022-12-18T22:05:51.419Z,-1.18
2022-12-18T22:08:42.231Z,-1.14
2022-12-18T22:11:15.138Z,-1.14
2022-12-18T22:13:46.917Z,-1.11
2022-12-18T22:16:16.549Z,-1.10
2022-12-18T22:18:46.214Z,-1.11
2022-12-18T22:21:29.020Z,-1.13
2022-12-18T22:24:02.946Z,-1.15
2022-12-18T22:26:39.485Z,-1.15
2022-12-18T22:29:22.853Z,-1.14
2022-12-18T22:31:52.713Z,-1.15
2022-12-18T22:34:23.344Z,-1.15
2022-12-18T22:36:53.215Z,-1.17
2022-12-18T22:39:26.809Z,-1.14
2022-12-18T22:41:58.847Z,-1.11
2022-12-18T22:44:28.660Z,-1.09
2022-12-18T22:47:05.669Z,-1.05
2022-12-18T22:49:36.351Z,-1.03
2022-12-18T22:52:06.076Z,-1.01
2022-12-18T22:54:38.633Z,-0.99
2022-12-18T22:57:08.219Z,-0.98
2022-12-18T22:59:37.828Z,-0.95
2022-12-18T23:02:08.421Z,-0.94
2022-12-18T23:04:38.199Z,-0.93
2022-12-18T23:07:08.167Z,-0.90
2022-12-18T23:09:40.344Z,-0.89
2022-12-18T23:12:10.542Z,-0.88
2022-12-18T23:14:40.179Z,-0.87
2022-12-18T23:17:09.802Z,-0.87
2022-12-18T23:19:44.074Z,-0.84
2022-12-18T23:22:16.842Z,-0.86
2022-12-18T23:24:49.080Z,-0.85
2022-12-18T23:27:18.661Z,-0.84
2022-12-18T23:29:48.220Z,-0.82
2022-12-18T23:32:19.000Z,-0.81
2022-12-18T23:34:48.605Z,-0.81
2022-12-18T23:37:35.365Z,-0.79
2022-12-18T23:40:11.692Z,-0.78
2022-12-18T23:42:41.272Z,-0.76
2022-12-18T23:45:17.638Z,-0.75
2022-12-18T23:47:50.959Z,-0.73
2022-12-18T23:50:23.610Z,-0.72
2022-12-18T23:53:04.997Z,-0.71
2022-12-18T23:55:42.071Z,-0.70
2022-12-18T23:58:18.854Z,-0.69
